Airfield :
LOGIN :

Register | Disclaimer

   EN    FR    IT 

 










Legend :    VFR   Marginal VFR   IFR   Intensive IFR   Very Intensive IFR
Visi :
Ceiling :
>= 8 km
>= 3000ft
5 to 8 km
1000 to 3000 ft
1500m to 5 km
500 to 1000 ft
800 to 1500m
200 to 500 ft
< 800m
< 200 ft
Symbols :   Thunderstorms  Fog  Heavy snow  Heavy precipitations  Wind > 20 kt
SIGMETs :     Misc.  Thunderstorms  Icing  Turbulence  Mountain Waves  Volcanic Ashes







- Airport Elevation : 13 ft
- IATA code : LYX
- Download approach charts


EGMD - Lydd

CURRENT METAR :
  • 161850Z AUTO VRB02KT 9999 FEW049/// 15/14 Q1015

EXPIRED METARs :
  • 161820Z AUTO VRB01KT 9999 FEW049/// 15/14 Q1015
  • 161750Z AUTO 27003KT 9999 FEW035/// 15/14 Q1015
  • 161720Z VRB02KT 9999 FEW010 SCT043 14/14 Q1015 RERA
  • 161650Z 31006KT 4500 RA FEW010 SCT019 BKN025 14/13 Q1015
  • 161620Z 32006KT 7000 -RA BKN010 14/13 Q1015

TAF TAF EGMD
Valid from the 16 at 18:00 until the 17 at 03:00 UTC


161659Z 1618/1703 29008KT 9999 FEW025
ATIS : +44 1797 322 422
No reported NOTAMs for that airfield.



MET'MAP, your aeronautical weather chart ! - Copyright ORBIFLY December 2007 - Disclaimer

ORBIFLY MET'MAP TEAM :

Programming & Development : Alexandra Zaïnal
Concept & Development : Baudouin d'Aumeries
Co-Development & Prog : Marc-Olivier Méhu
Technical & hardware support : Manuel Goepfert

Contact : metmap@orbifly.com




SOURCES & CREDITS :

   NOAA